Time;durP1;ratioP1;P1;durP2;ratioP2;P2;SDS_P1;SDS_P2;PMS_P1;PMS_P2;Temp;Humidity;BMP_temperature;BMP_pressure;BME280_temperature;BME280_humidity;BME280_pressure;Samples;Min_cycle;Max_cycle;Signal;HPM_P1;HPM_P2
2021/01/06 00:00:08;;;;;;;9.23;6.03;;;4.60;86.40;;;;;;4992828;28;20034;-89
2021/01/06 00:02:38;;;;;;;7.72;4.93;;;4.70;86.50;;;;;;4988505;28;20031;-88
2021/01/06 00:05:09;;;;;;;6.93;4.90;;;4.70;86.60;;;;;;4993937;28;20023;-87
2021/01/06 00:07:35;;;;;;;7.05;5.05;;;4.70;86.60;;;;;;4993679;28;20030;-88
2021/01/06 00:10:01;;;;;;;10.77;6.38;;;4.70;86.60;;;;;;4992647;28;20300;-87
2021/01/06 00:12:26;;;;;;;8.25;5.47;;;4.70;86.60;;;;;;4992841;28;20089;-88
2021/01/06 00:14:52;;;;;;;8.27;5.78;;;4.60;86.50;;;;;;4993944;28;20109;-91
2021/01/06 00:17:17;;;;;;;8.73;5.85;;;4.60;86.50;;;;;;5002306;28;20050;-89
2021/01/06 00:19:43;;;;;;;8.65;5.05;;;4.60;86.60;;;;;;4994505;28;20046;-89
2021/01/06 00:22:08;;;;;;;9.77;6.20;;;4.60;86.60;;;;;;4993460;28;20181;-88
2021/01/06 00:24:34;;;;;;;5.57;4.00;;;4.60;86.70;;;;;;4993033;28;20034;-88
2021/01/06 00:26:59;;;;;;;11.82;7.22;;;4.60;86.70;;;;;;4993068;28;20087;-89
2021/01/06 00:29:25;;;;;;;9.73;6.35;;;4.60;86.70;;;;;;4993929;28;20088;-90
2021/01/06 00:31:51;;;;;;;11.52;7.35;;;4.60;86.80;;;;;;4993580;28;20053;-90
2021/01/06 00:34:18;;;;;;;10.93;7.47;;;4.60;86.80;;;;;;4993066;28;20036;-89
2021/01/06 00:36:43;;;;;;;9.07;5.88;;;4.60;86.80;;;;;;4993086;28;20030;-89
2021/01/06 00:39:09;;;;;;;8.93;6.60;;;4.60;86.80;;;;;;4992564;28;20121;-89
2021/01/06 00:41:36;;;;;;;10.52;6.75;;;4.60;86.90;;;;;;4992709;28;20029;-88
2021/01/06 00:44:02;;;;;;;9.95;6.32;;;4.60;86.90;;;;;;4993139;28;20040;-88
2021/01/06 00:46:31;;;;;;;10.07;6.28;;;4.60;86.90;;;;;;4992633;28;20026;-88
2021/01/06 00:48:58;;;;;;;12.77;7.65;;;4.60;87.00;;;;;;4987132;28;20026;-89
2021/01/06 00:51:24;;;;;;;8.98;5.90;;;4.50;87.00;;;;;;4990728;28;20031;-88
2021/01/06 00:53:50;;;;;;;8.95;6.07;;;4.50;87.00;;;;;;4974400;28;20033;-88
2021/01/06 00:56:15;;;;;;;9.35;5.65;;;4.50;87.00;;;;;;4975321;28;20019;-88
2021/01/06 00:58:41;;;;;;;10.52;6.55;;;4.50;87.00;;;;;;4988903;28;20077;-87
2021/01/06 01:01:07;;;;;;;7.40;5.15;;;4.50;86.90;;;;;;4995181;28;20373;-88
2021/01/06 01:03:32;;;;;;;9.70;6.20;;;4.60;86.90;;;;;;4994667;28;20121;-88
2021/01/06 01:05:58;;;;;;;9.07;5.47;;;4.60;86.90;;;;;;4997561;28;20045;-87
2021/01/06 01:08:24;;;;;;;9.52;5.22;;;4.50;86.80;;;;;;5014127;28;20022;-87
2021/01/06 01:10:52;;;;;;;6.90;4.72;;;4.60;86.90;;;;;;5013941;28;20026;-88
2021/01/06 01:13:23;;;;;;;8.98;5.75;;;4.60;86.90;;;;;;5012430;28;20030;-92
2021/01/06 01:15:55;;;;;;;9.45;5.80;;;4.60;86.90;;;;;;4996613;28;20030;-91
2021/01/06 01:18:23;;;;;;;7.43;5.20;;;4.60;86.80;;;;;;5010280;28;20077;-90
2021/01/06 01:20:51;;;;;;;8.20;5.57;;;4.60;86.80;;;;;;5011841;28;20057;-90
2021/01/06 01:23:19;;;;;;;7.88;4.95;;;4.60;86.80;;;;;;5010789;28;20033;-89
2021/01/06 01:25:46;;;;;;;9.00;5.85;;;4.60;86.80;;;;;;4998159;28;20026;-90
2021/01/06 01:28:12;;;;;;;10.57;7.03;;;4.60;86.80;;;;;;4985535;28;20026;-90
2021/01/06 01:30:38;;;;;;;7.13;4.93;;;4.60;86.70;;;;;;4989772;28;20026;-89
2021/01/06 01:33:04;;;;;;;8.48;5.13;;;4.60;86.80;;;;;;4988104;28;20160;-88
2021/01/06 01:35:31;;;;;;;8.25;5.70;;;4.60;86.70;;;;;;4988889;28;20014;-88
2021/01/06 01:37:59;;;;;;;6.95;5.13;;;4.60;86.70;;;;;;4980634;28;20047;-87
2021/01/06 01:40:28;;;;;;;8.32;6.07;;;4.60;86.60;;;;;;4987975;28;20065;-88
2021/01/06 01:42:59;;;;;;;7.93;5.70;;;4.60;86.60;;;;;;4982417;28;20492;-88
2021/01/06 01:45:27;;;;;;;9.48;6.00;;;4.50;86.60;;;;;;4984784;28;20041;-87
2021/01/06 01:48:03;;;;;;;8.05;5.18;;;4.50;86.60;;;;;;4989484;28;20675;-87
2021/01/06 01:50:30;;;;;;;7.03;4.75;;;4.50;86.60;;;;;;4984371;28;20054;-88
2021/01/06 01:53:05;;;;;;;7.18;5.38;;;4.50;86.60;;;;;;4986187;28;20022;-88
2021/01/06 01:55:32;;;;;;;8.48;5.88;;;4.50;86.60;;;;;;4995577;28;20480;-87
2021/01/06 01:58:04;;;;;;;6.30;4.82;;;4.50;86.50;;;;;;4994992;28;20023;-87
2021/01/06 02:00:35;;;;;;;8.45;5.35;;;4.50;86.50;;;;;;4986980;28;20081;-88
2021/01/06 02:03:15;;;;;;;6.68;4.63;;;4.50;86.40;;;;;;4991789;28;20022;-89
2021/01/06 02:05:50;;;;;;;8.60;5.45;;;4.50;86.40;;;;;;4989718;28;20030;-90
2021/01/06 02:08:35;;;;;;;7.15;5.00;;;4.50;86.30;;;;;;4995875;28;20073;-88
2021/01/06 02:11:19;;;;;;;9.13;6.07;;;4.50;86.30;;;;;;5012990;28;20035;-90
2021/01/06 02:14:13;;;;;;;8.35;6.15;;;4.50;86.20;;;;;;5012441;28;20023;-85
2021/01/06 02:16:47;;;;;;;;;;;4.40;86.30;;;;;;5012350;28;20106;-86
2021/01/06 02:19:16;;;;;;;7.22;5.15;;;4.40;86.30;;;;;;5005290;28;20054;-87
2021/01/06 02:21:41;;;;;;;7.05;5.07;;;4.40;86.30;;;;;;4992836;28;20032;-87
2021/01/06 02:24:07;;;;;;;9.32;6.35;;;4.40;86.30;;;;;;4992466;28;20096;-87
2021/01/06 02:26:34;;;;;;;7.80;5.38;;;4.40;86.20;;;;;;4994121;28;20041;-87
2021/01/06 02:29:00;;;;;;;9.40;6.13;;;4.40;86.20;;;;;;4994559;28;20180;-88
2021/01/06 02:31:26;;;;;;;9.35;6.20;;;4.40;86.10;;;;;;4994176;28;20018;-88
2021/01/06 02:33:52;;;;;;;7.50;5.35;;;4.40;86.00;;;;;;4992831;28;20030;-88
2021/01/06 02:36:20;;;;;;;7.13;5.38;;;4.40;86.10;;;;;;4995230;28;20035;-89
2021/01/06 02:38:46;;;;;;;8.45;6.05;;;4.40;86.20;;;;;;5009476;28;20032;-89
2021/01/06 02:41:12;;;;;;;8.18;5.40;;;4.40;86.20;;;;;;5009405;28;20093;-89
2021/01/06 02:43:39;;;;;;;7.22;4.53;;;4.40;86.10;;;;;;5012428;28;20049;-89
2021/01/06 02:46:05;;;;;;;8.10;5.68;;;4.40;86.10;;;;;;5001389;28;20035;-90
2021/01/06 02:48:32;;;;;;;8.98;5.95;;;4.40;86.10;;;;;;5010445;28;20030;-91
2021/01/06 02:51:04;;;;;;;11.80;6.78;;;4.30;86.00;;;;;;5005305;28;20035;-91
2021/01/06 02:53:41;;;;;;;7.78;5.03;;;4.30;86.10;;;;;;5009560;28;20033;-91
2021/01/06 02:56:07;;;;;;;8.80;6.20;;;4.30;86.10;;;;;;5013724;28;20018;-91
2021/01/06 02:58:34;;;;;;;8.25;5.72;;;4.30;86.10;;;;;;5018585;28;20060;-91
2021/01/06 03:01:00;;;;;;;8.30;6.35;;;4.20;86.00;;;;;;5019330;28;20033;-92
2021/01/06 03:03:29;;;;;;;9.30;7.00;;;4.30;86.00;;;;;;5011928;28;20034;-91
2021/01/06 03:06:22;;;;;;;9.27;6.18;;;4.30;86.00;;;;;;5009119;28;20094;-91
2021/01/06 03:08:48;;;;;;;9.52;6.43;;;4.20;86.10;;;;;;5007532;28;20035;-91
2021/01/06 03:11:13;;;;;;;6.65;5.00;;;4.20;86.10;;;;;;5005317;28;20022;-91
2021/01/06 03:13:39;;;;;;;8.00;6.05;;;4.20;86.10;;;;;;4995901;28;20026;-91
2021/01/06 03:16:05;;;;;;;9.73;6.40;;;4.20;86.00;;;;;;4994909;28;20026;-90
2021/01/06 03:18:31;;;;;;;9.93;7.03;;;4.20;86.10;;;;;;4994160;28;20468;-89
2021/01/06 03:21:04;;;;;;;8.68;5.95;;;4.20;86.00;;;;;;4994099;28;20065;-89
2021/01/06 03:23:33;;;;;;;7.88;5.68;;;4.20;86.10;;;;;;4993227;28;20037;-89
2021/01/06 03:26:02;;;;;;;8.43;6.15;;;4.20;86.00;;;;;;4994114;28;20042;-89
2021/01/06 03:28:31;;;;;;;9.75;7.05;;;4.20;86.00;;;;;;4986561;28;20026;-89
2021/01/06 03:30:58;;;;;;;6.50;4.78;;;4.20;85.90;;;;;;4994994;28;20027;-89
2021/01/06 03:33:34;;;;;;;7.10;5.35;;;4.20;86.00;;;;;;4994214;28;20468;-89
2021/01/06 03:36:12;;;;;;;9.55;6.57;;;4.20;86.00;;;;;;4994275;28;20036;-89
2021/01/06 03:38:58;;;;;;;8.40;6.30;;;4.20;86.00;;;;;;4987358;28;20031;-88
2021/01/06 03:41:25;;;;;;;7.57;5.75;;;4.20;85.90;;;;;;4984947;28;20038;-88
2021/01/06 03:43:55;;;;;;;8.07;6.03;;;4.20;85.80;;;;;;4993446;28;20109;-90
2021/01/06 03:46:46;;;;;;;7.50;5.10;;;4.20;85.90;;;;;;4992796;28;20050;-89
2021/01/06 03:49:31;;;;;;;7.97;6.00;;;4.20;85.80;;;;;;4993362;28;20039;-88
2021/01/06 03:52:07;;;;;;;7.57;5.68;;;4.20;85.80;;;;;;4994837;28;20049;-88
2021/01/06 03:54:44;;;;;;;9.60;6.82;;;4.20;85.80;;;;;;4993913;28;20025;-88
2021/01/06 03:57:11;;;;;;;7.38;5.05;;;4.20;85.80;;;;;;4993417;28;20109;-88
2021/01/06 03:59:40;;;;;;;10.73;7.40;;;4.20;85.70;;;;;;4993381;28;20039;-88
2021/01/06 04:02:42;;;;;;;7.90;5.78;;;4.20;85.70;;;;;;4993851;28;20018;-88
2021/01/06 04:05:15;;;;;;;9.82;5.90;;;4.20;85.60;;;;;;4974892;28;20254;-88
2021/01/06 04:07:52;;;;;;;7.88;5.95;;;4.20;85.60;;;;;;4990796;28;20026;-89
2021/01/06 04:10:31;;;;;;;10.07;7.18;;;4.20;85.60;;;;;;4983897;28;20045;-88
2021/01/06 04:12:58;;;;;;;8.65;6.47;;;4.20;85.50;;;;;;4995429;28;20144;-89
2021/01/06 04:15:23;;;;;;;6.03;4.47;;;4.20;85.50;;;;;;4995476;28;20058;-89
2021/01/06 04:17:51;;;;;;;8.38;5.97;;;4.20;85.50;;;;;;5007592;28;20022;-88
2021/01/06 04:20:31;;;;;;;9.57;6.38;;;4.20;85.50;;;;;;5001088;28;20050;-88
2021/01/06 04:22:59;;;;;;;7.63;5.18;;;4.20;85.50;;;;;;4993570;28;20452;-88
2021/01/06 04:25:25;;;;;;;8.68;6.43;;;4.20;85.40;;;;;;4994346;28;20492;-90
2021/01/06 04:27:53;;;;;;;7.95;6.15;;;4.30;85.40;;;;;;4985599;28;20086;-88
2021/01/06 04:30:26;;;;;;;8.55;5.78;;;4.20;85.30;;;;;;4994041;28;20054;-89
2021/01/06 04:32:53;;;;;;;10.63;7.15;;;4.20;85.30;;;;;;4994718;28;20472;-88
2021/01/06 04:35:20;;;;;;;8.85;6.55;;;4.30;85.30;;;;;;4993691;28;20084;-88
2021/01/06 04:37:46;;;;;;;9.27;6.40;;;4.20;85.80;;;;;;4992933;28;20125;-88
2021/01/06 04:40:13;;;;;;;6.95;5.05;;;4.10;85.20;;;;;;4987690;28;20121;-88
2021/01/06 04:42:39;;;;;;;8.65;6.00;;;4.10;85.30;;;;;;4994275;28;20080;-88
2021/01/06 04:45:13;;;;;;;7.63;5.50;;;4.10;85.30;;;;;;4994688;28;20583;-89
2021/01/06 04:47:44;;;;;;;7.85;5.32;;;4.10;85.40;;;;;;4993273;28;20038;-88
2021/01/06 04:50:22;;;;;;;7.95;5.68;;;4.10;85.40;;;;;;4994700;28;20039;-88
2021/01/06 04:53:24;;;;;;;6.93;5.40;;;4.10;85.40;;;;;;4995881;28;20091;-88
2021/01/06 04:56:10;;;;;;;7.72;5.80;;;4.00;85.40;;;;;;4990759;28;20045;-90
2021/01/06 04:59:01;;;;;;;10.85;6.40;;;4.00;85.50;;;;;;4993835;28;20030;-90
2021/01/06 05:01:48;;;;;;;8.85;5.57;;;3.90;85.50;;;;;;4995020;28;20096;-91
2021/01/06 05:04:36;;;;;;;8.95;6.10;;;3.90;85.60;;;;;;4991308;28;20117;-91
2021/01/06 05:07:32;;;;;;;7.90;5.13;;;3.90;85.60;;;;;;4973159;28;20042;-90
2021/01/06 05:10:16;;;;;;;7.63;5.28;;;3.90;85.70;;;;;;4985516;28;20096;-90
2021/01/06 05:12:47;;;;;;;9.55;6.43;;;3.90;85.60;;;;;;4993399;28;20049;-90
2021/01/06 05:15:34;;;;;;;6.65;4.95;;;3.90;85.60;;;;;;4993611;28;20634;-89
2021/01/06 05:18:00;;;;;;;8.75;5.82;;;3.90;85.70;;;;;;4993867;28;20018;-91
2021/01/06 05:20:26;;;;;;;7.43;5.28;;;4.00;85.60;;;;;;4992751;28;20031;-88
2021/01/06 05:22:51;;;;;;;7.97;5.70;;;4.00;85.60;;;;;;4992428;28;20476;-87
2021/01/06 05:25:18;;;;;;;8.27;5.38;;;4.00;85.50;;;;;;4993127;28;20033;-89
2021/01/06 05:27:46;;;;;;;8.52;6.00;;;4.10;85.50;;;;;;4993925;28;20033;-89
2021/01/06 05:30:27;;;;;;;8.07;5.30;;;4.00;85.40;;;;;;4993476;28;20602;-86
2021/01/06 05:33:05;;;;;;;6.18;4.65;;;4.00;85.50;;;;;;4976149;28;20038;-88
2021/01/06 05:35:43;;;;;;;8.13;5.47;;;4.00;85.40;;;;;;4992675;28;20034;-86
2021/01/06 05:38:09;;;;;;;7.63;5.25;;;4.00;85.40;;;;;;4981446;28;20045;-88
2021/01/06 05:40:37;;;;;;;6.78;4.70;;;4.00;85.40;;;;;;5001837;28;20034;-86
2021/01/06 05:43:18;;;;;;;9.02;5.63;;;4.00;85.50;;;;;;5009747;28;20014;-91
2021/01/06 05:45:52;;;;;;;7.40;5.03;;;4.00;85.40;;;;;;5009982;28;20026;-90
2021/01/06 05:48:40;;;;;;;7.70;5.10;;;4.00;85.40;;;;;;4999646;28;20476;-91
2021/01/06 05:51:24;;;;;;;7.00;5.15;;;4.00;85.40;;;;;;5008815;28;20037;-90
2021/01/06 05:54:00;;;;;;;8.10;5.95;;;4.00;85.30;;;;;;5010408;28;20031;-91
2021/01/06 05:56:37;;;;;;;8.15;5.65;;;3.90;85.10;;;;;;5011551;28;20034;-92
2021/01/06 05:59:23;;;;;;;6.90;4.50;;;3.90;85.20;;;;;;4992074;28;20114;-93
2021/01/06 06:02:09;;;;;;;7.18;4.85;;;3.90;85.90;;;;;;4992833;28;20122;-92
2021/01/06 06:05:12;;;;;;;5.78;3.95;;;3.80;85.30;;;;;;4994533;28;20534;-92
2021/01/06 06:07:57;;;;;;;5.65;4.00;;;3.80;85.20;;;;;;4996251;28;20045;-90
2021/01/06 06:10:49;;;;;;;6.82;4.45;;;3.80;85.10;;;;;;4993355;28;20030;-92
2021/01/06 06:13:31;;;;;;;7.10;4.80;;;3.80;85.20;;;;;;5015625;28;20041;-93
2021/01/06 06:16:22;;;;;;;6.55;4.75;;;3.80;85.20;;;;;;5015579;28;20010;-92
2021/01/06 06:18:59;;;;;;;5.75;3.92;;;3.70;85.20;;;;;;4984592;28;20042;-92
2021/01/06 06:21:40;;;;;;;6.78;4.75;;;3.70;85.20;;;;;;4993006;28;20483;-92
2021/01/06 06:24:43;;;;;;;5.65;4.18;;;3.70;85.20;;;;;;4993378;28;20049;-93
2021/01/06 06:27:44;;;;;;;7.63;4.83;;;3.70;85.10;;;;;;4987156;28;20046;-91
2021/01/06 06:30:10;;;;;;;7.25;4.93;;;3.70;85.00;;;;;;4991507;28;20109;-91
2021/01/06 06:32:40;;;;;;;8.10;5.10;;;3.70;85.00;;;;;;4992278;28;20072;-92
2021/01/06 06:35:18;;;;;;;6.90;4.55;;;3.70;84.90;;;;;;4991748;28;20023;-93
2021/01/06 06:37:55;;;;;;;5.63;4.22;;;3.70;84.90;;;;;;4992226;28;20104;-94
2021/01/06 06:40:21;;;;;;;4.57;3.13;;;3.80;85.00;;;;;;4983995;28;20038;-94
2021/01/06 06:42:54;;;;;;;5.93;3.95;;;3.70;84.90;;;;;;4981552;28;20027;-92
2021/01/06 06:45:28;;;;;;;6.90;4.78;;;3.70;84.90;;;;;;4989122;28;20061;-86
2021/01/06 06:48:13;;;;;;;6.57;4.90;;;3.60;84.80;;;;;;4988402;28;20030;-93
2021/01/06 06:51:05;;;;;;;6.70;4.45;;;3.60;84.80;;;;;;4989967;28;20054;-94
2021/01/06 06:53:58;;;;;;;5.75;4.05;;;3.60;84.80;;;;;;4991170;28;20022;-95
2021/01/06 06:56:52;;;;;;;5.72;4.00;;;3.60;84.80;;;;;;4991939;28;20018;-93
2021/01/06 06:59:33;;;;;;;6.60;4.65;;;3.60;84.80;;;;;;4993766;28;20113;-93
2021/01/06 07:02:02;;;;;;;5.85;3.92;;;3.60;84.70;;;;;;4986957;28;20030;-92
2021/01/06 07:04:43;;;;;;;6.18;4.22;;;3.50;84.70;;;;;;4984499;28;20109;-92
2021/01/06 07:07:46;;;;;;;4.57;3.20;;;3.60;84.80;;;;;;4987356;28;20022;-92
2021/01/06 07:10:20;;;;;;;4.90;3.33;;;3.60;84.80;;;;;;4980514;28;20023;-91
2021/01/06 07:12:47;;;;;;;5.40;3.80;;;3.60;84.70;;;;;;4985099;28;20018;-93
2021/01/06 07:15:41;;;;;;;5.57;3.33;;;3.80;84.80;;;;;;4980588;28;20037;-92
2021/01/06 07:18:33;;;;;;;6.88;4.25;;;3.70;84.70;;;;;;4988964;28;20077;-92
2021/01/06 07:21:18;;;;;;;7.60;4.38;;;3.80;84.60;;;;;;4987654;28;20061;-91
2021/01/06 07:24:00;;;;;;;6.70;3.97;;;3.80;84.40;;;;;;5008828;28;20022;-91
2021/01/06 07:26:41;;;;;;;5.38;3.67;;;3.80;84.40;;;;;;4992085;28;20057;-92
2021/01/06 07:29:17;;;;;;;5.55;3.67;;;3.80;84.40;;;;;;4995292;28;20033;-93
2021/01/06 07:32:08;;;;;;;6.28;4.35;;;3.80;84.40;;;;;;4982362;28;20030;-94
2021/01/06 07:34:44;;;;;;;6.03;4.22;;;3.70;84.20;;;;;;4989573;28;20022;-92
2021/01/06 07:38:07;;;;;;;;;;;;;;;;;;;;;
2021/01/06 07:40:41;;;;;;;6.70;3.92;;;3.70;84.20;;;;;;4936075;29;20048;-88
2021/01/06 07:43:06;;;;;;;6.15;4.00;;;3.70;84.20;;;;;;4984419;28;20046;-86
2021/01/06 07:45:45;;;;;;;7.50;4.93;;;3.70;84.20;;;;;;4991333;28;20033;-87
2021/01/06 07:48:16;;;;;;;6.15;4.13;;;3.70;84.20;;;;;;4992265;28;20015;-85
2021/01/06 07:50:57;;;;;;;7.82;5.30;;;3.70;84.30;;;;;;4990876;28;20034;-85
2021/01/06 07:53:26;;;;;;;7.55;4.55;;;3.70;84.30;;;;;;4992052;28;20608;-85
2021/01/06 07:55:58;;;;;;;7.13;4.55;;;3.60;84.30;;;;;;4992512;28;20447;-85
2021/01/06 07:58:42;;;;;;;5.90;4.25;;;3.60;84.50;;;;;;4991027;28;20026;-86
2021/01/06 08:01:20;;;;;;;5.63;3.67;;;3.70;84.60;;;;;;4989693;28;20030;-86
2021/01/06 08:03:59;;;;;;;6.45;4.03;;;3.70;84.60;;;;;;4991855;28;20457;-87
2021/01/06 08:06:58;;;;;;;7.00;4.85;;;3.80;84.50;;;;;;4987006;28;20034;-87
2021/01/06 08:09:31;;;;;;;6.22;3.95;;;3.90;84.40;;;;;;4955977;28;20042;-88
2021/01/06 08:11:59;;;;;;;;;;;3.90;84.30;;;;;;4988075;28;20082;-87
2021/01/06 08:14:32;;;;;;;6.85;4.18;;;3.80;84.20;;;;;;4989618;28;19921;-85
2021/01/06 08:17:19;;;;;;;6.10;4.07;;;3.80;84.30;;;;;;4992007;28;20044;-87
2021/01/06 08:20:09;;;;;;;6.82;4.13;;;3.80;84.30;;;;;;4990105;28;20038;-87
2021/01/06 08:23:10;;;;;;;8.00;5.50;;;3.80;84.40;;;;;;4990032;28;20033;-87
2021/01/06 08:25:36;;;;;;;8.52;5.00;;;3.80;84.30;;;;;;4986513;28;20034;-88
2021/01/06 08:28:44;;;;;;;5.57;3.67;;;3.80;84.30;;;;;;4972967;28;20516;-93
2021/01/06 08:31:16;;;;;;;9.35;6.55;;;3.90;84.30;;;;;;4987877;28;20049;-91
2021/01/06 08:33:55;;;;;;;9.43;5.95;;;3.70;84.10;;;;;;4993474;28;20033;-89
2021/01/06 08:36:34;;;;;;;6.68;4.65;;;3.70;84.10;;;;;;4988167;28;20023;-91
2021/01/06 08:39:23;;;;;;;8.85;5.65;;;3.70;84.30;;;;;;4984235;28;20030;-95
2021/01/06 08:41:50;;;;;;;7.53;4.63;;;3.70;84.30;;;;;;4992185;28;20037;-92
2021/01/06 08:44:49;;;;;;;7.75;4.80;;;3.70;84.20;;;;;;4989915;28;20565;-93
2021/01/06 08:47:45;;;;;;;9.35;6.00;;;3.70;84.10;;;;;;4986574;28;20456;-94
2021/01/06 08:50:21;;;;;;;6.07;4.40;;;3.60;83.80;;;;;;4994688;28;20076;-92
2021/01/06 08:52:50;;;;;;;7.38;4.90;;;3.60;84.00;;;;;;4988430;28;20621;-93
2021/01/06 08:55:16;;;;;;;9.48;5.30;;;3.60;84.00;;;;;;5003768;28;20049;-88
2021/01/06 08:57:42;;;;;;;5.95;3.90;;;3.60;83.80;;;;;;4993125;28;20060;-88
2021/01/06 09:00:24;;;;;;;8.27;5.45;;;3.60;83.70;;;;;;4990775;28;20412;-89
2021/01/06 09:02:53;;;;;;;6.60;4.93;;;3.60;83.50;;;;;;4990262;28;20033;-88
2021/01/06 09:05:44;;;;;;;6.43;4.30;;;3.60;84.10;;;;;;4991281;28;20034;-89
2021/01/06 09:08:20;;;;;;;7.68;5.10;;;3.70;83.60;;;;;;4982403;28;20257;-88
2021/01/06 09:11:00;;;;;;;6.70;4.28;;;3.70;83.30;;;;;;4994004;28;20042;-91
2021/01/06 09:13:35;;;;;;;7.25;4.80;;;3.80;83.40;;;;;;4995275;28;20026;-90
2021/01/06 09:16:08;;;;;;;6.28;4.68;;;3.80;83.10;;;;;;4990747;28;20029;-87
2021/01/06 09:18:48;;;;;;;6.30;4.47;;;3.70;83.00;;;;;;5011577;28;20046;-89
2021/01/06 09:21:31;;;;;;;7.57;5.30;;;3.80;83.10;;;;;;4997795;28;20112;-90
2021/01/06 09:24:08;;;;;;;8.35;4.75;;;3.80;82.90;;;;;;4992725;28;20045;-92
2021/01/06 09:26:37;;;;;;;7.80;5.50;;;3.80;82.80;;;;;;4993729;28;20026;-89
2021/01/06 09:29:17;;;;;;;6.95;4.47;;;3.70;82.60;;;;;;4987508;28;20022;-92
2021/01/06 09:31:57;;;;;;;5.68;4.07;;;3.80;82.80;;;;;;4991539;28;20158;-92
2021/01/06 09:34:35;;;;;;;6.80;4.18;;;3.90;82.90;;;;;;4987868;28;20033;-90
2021/01/06 09:37:01;;;;;;;8.25;5.18;;;3.90;82.50;;;;;;4987851;28;20054;-91
2021/01/06 09:39:31;;;;;;;5.90;4.50;;;3.90;82.60;;;;;;4987015;28;20049;-90
2021/01/06 09:42:03;;;;;;;7.57;5.22;;;3.90;82.50;;;;;;4986119;28;20034;-88
2021/01/06 09:44:30;;;;;;;9.65;5.45;;;3.90;82.40;;;;;;4992484;28;20090;-88
2021/01/06 09:47:06;;;;;;;6.13;4.45;;;3.90;82.30;;;;;;4999404;28;20038;-92
2021/01/06 09:49:43;;;;;;;8.98;5.70;;;3.90;82.20;;;;;;5004324;28;20030;-89
2021/01/06 09:52:21;;;;;;;7.15;4.78;;;4.00;82.30;;;;;;4997754;28;20092;-93
2021/01/06 09:54:47;;;;;;;7.88;4.65;;;3.90;82.20;;;;;;4999682;28;20037;-92
2021/01/06 09:57:18;;;;;;;8.23;4.68;;;3.90;82.10;;;;;;5013920;28;20030;-93
2021/01/06 09:59:47;;;;;;;6.93;4.88;;;3.90;82.00;;;;;;5004877;28;20061;-90
2021/01/06 10:02:24;;;;;;;9.80;6.90;;;3.90;82.00;;;;;;4996831;28;20124;-89
2021/01/06 10:04:54;;;;;;;6.45;4.72;;;3.90;81.80;;;;;;5001136;28;20037;-89
2021/01/06 10:07:45;;;;;;;8.70;5.82;;;3.90;81.90;;;;;;5001561;28;20015;-91
2021/01/06 10:10:24;;;;;;;7.25;5.40;;;4.00;81.90;;;;;;4997035;28;20037;-90
2021/01/06 10:13:13;;;;;;;8.70;5.90;;;4.00;81.80;;;;;;4995370;28;20037;-88
2021/01/06 10:16:06;;;;;;;6.88;5.00;;;3.90;81.70;;;;;;4991435;28;20034;-93
2021/01/06 10:19:15;;;;;;;8.23;6.15;;;3.90;81.90;;;;;;4979950;28;20046;-91
2021/01/06 10:22:03;;;;;;;6.50;4.85;;;3.90;81.60;;;;;;4977202;28;20133;-90
2021/01/06 10:24:31;;;;;;;5.28;3.65;;;3.90;81.80;;;;;;5005630;28;20033;-88
2021/01/06 10:27:24;;;;;;;6.38;4.40;;;4.00;81.90;;;;;;5015083;28;20035;-91
2021/01/06 10:29:54;;;;;;;5.40;4.03;;;4.00;81.80;;;;;;4996198;28;20404;-90
2021/01/06 10:32:26;;;;;;;5.38;3.88;;;4.10;81.80;;;;;;4993657;28;20110;-88
2021/01/06 10:35:10;;;;;;;6.35;4.20;;;4.10;81.80;;;;;;4989766;28;20026;-91
2021/01/06 10:37:43;;;;;;;7.97;4.97;;;4.10;81.70;;;;;;4993493;28;20030;-90
2021/01/06 10:40:11;;;;;;;;;;;4.10;81.50;;;;;;4988419;28;20046;-89
2021/01/06 10:42:37;;;;;;;6.55;4.28;;;4.10;81.30;;;;;;4982274;28;19909;-88
2021/01/06 10:45:36;;;;;;;4.72;3.33;;;4.10;81.40;;;;;;4995440;28;20527;-89
2021/01/06 10:48:03;;;;;;;5.47;4.10;;;4.10;81.30;;;;;;4991906;28;20022;-89
2021/01/06 10:50:29;;;;;;;6.47;4.03;;;4.10;81.20;;;;;;4989192;28;20026;-89
2021/01/06 10:53:04;;;;;;;6.00;3.72;;;4.10;81.30;;;;;;4991077;28;20034;-90
2021/01/06 10:55:43;;;;;;;6.35;3.58;;;4.10;81.30;;;;;;4990698;28;20023;-90
2021/01/06 10:58:16;;;;;;;7.75;3.90;;;4.20;81.30;;;;;;4995006;28;20034;-90
2021/01/06 11:01:09;;;;;;;6.00;4.10;;;4.20;81.20;;;;;;4996446;28;20089;-88
2021/01/06 11:04:15;;;;;;;8.60;4.57;;;4.20;81.00;;;;;;5001335;28;20043;-89
2021/01/06 11:06:53;;;;;;;6.60;3.72;;;4.20;80.90;;;;;;4993692;28;20407;-90
2021/01/06 11:09:24;;;;;;;5.72;3.67;;;4.30;80.90;;;;;;4995875;28;20022;-91
2021/01/06 11:12:16;;;;;;;5.35;3.63;;;4.30;80.90;;;;;;4994887;28;20034;-90
2021/01/06 11:15:05;;;;;;;5.28;3.20;;;4.40;80.80;;;;;;4992690;28;20027;-89
2021/01/06 11:17:37;;;;;;;4.70;3.22;;;4.40;80.80;;;;;;4994949;28;20293;-90
2021/01/06 11:20:23;;;;;;;5.60;3.30;;;4.40;80.70;;;;;;4994841;28;20100;-90
2021/01/06 11:22:50;;;;;;;4.60;3.20;;;4.40;80.70;;;;;;4992941;28;20392;-90
2021/01/06 11:25:50;;;;;;;4.00;2.75;;;4.40;80.70;;;;;;4995240;28;20030;-92
2021/01/06 11:28:58;;;;;;;5.35;3.40;;;4.50;80.60;;;;;;4980811;28;20564;-93
2021/01/06 11:31:29;;;;;;;6.25;3.42;;;4.50;80.60;;;;;;4996368;28;20045;-91
2021/01/06 11:33:58;;;;;;;4.53;3.20;;;4.60;80.40;;;;;;4996137;28;20113;-93
2021/01/06 11:36:45;;;;;;;5.50;3.55;;;4.60;80.40;;;;;;4989531;28;20030;-91
2021/01/06 11:39:36;;;;;;;5.30;3.70;;;4.60;80.20;;;;;;4995600;28;20069;-92
2021/01/06 11:42:19;;;;;;;3.53;2.53;;;4.60;80.10;;;;;;4991432;28;20040;-91
2021/01/06 11:45:06;;;;;;;3.97;2.50;;;4.70;80.10;;;;;;4990897;28;20114;-91
2021/01/06 11:47:52;;;;;;;5.18;3.13;;;4.60;80.00;;;;;;4991786;28;20030;-90
2021/01/06 11:50:37;;;;;;;4.60;2.83;;;4.70;80.10;;;;;;4992782;28;20506;-91
2021/01/06 11:53:18;;;;;;;4.45;2.90;;;4.70;79.90;;;;;;4995947;28;20050;-92
2021/01/06 11:55:58;;;;;;;5.40;3.20;;;4.80;79.90;;;;;;5008831;28;20019;-93
2021/01/06 11:58:32;;;;;;;5.18;3.28;;;4.80;79.80;;;;;;5010056;28;20026;-94
2021/01/06 12:01:34;;;;;;;4.13;2.90;;;4.80;79.70;;;;;;4996630;28;20026;-95
2021/01/06 12:04:16;;;;;;;5.27;3.00;;;4.90;79.70;;;;;;4995507;28;20097;-94
2021/01/06 12:06:59;;;;;;;3.70;2.50;;;4.90;79.60;;;;;;4993735;28;20797;-92
2021/01/06 12:09:36;;;;;;;;;;;4.90;79.60;;;;;;4996257;28;20029;-94
2021/01/06 12:12:32;;;;;;;3.63;2.78;;;4.90;79.20;;;;;;4995904;28;20000;-94
2021/01/06 12:15:30;;;;;;;4.10;2.78;;;4.80;78.90;;;;;;4993160;28;20014;-94
2021/01/06 12:18:00;;;;;;;4.68;2.90;;;4.70;78.80;;;;;;4974634;28;20023;-93
2021/01/06 12:20:34;;;;;;;3.72;2.40;;;4.70;78.80;;;;;;5011462;28;20046;-96
2021/01/06 12:23:15;;;;;;;5.15;3.22;;;4.80;79.10;;;;;;4985836;28;20018;-95
2021/01/06 12:25:48;;;;;;;5.65;2.70;;;4.80;79.10;;;;;;4986200;28;20062;-94
2021/01/06 12:28:48;;;;;;;4.28;2.70;;;4.80;78.90;;;;;;4979846;28;20070;-89
2021/01/06 12:31:25;;;;;;;3.20;2.22;;;4.90;79.00;;;;;;4986111;28;20476;-92
2021/01/06 12:34:15;;;;;;;3.35;2.40;;;4.90;78.80;;;;;;4986369;28;20114;-93
2021/01/06 12:37:11;;;;;;;2.78;2.03;;;4.90;78.70;;;;;;4986262;28;20038;-90
2021/01/06 12:40:07;;;;;;;4.32;2.08;;;4.90;78.50;;;;;;4986938;28;20082;-89
2021/01/06 12:42:59;;;;;;;2.72;1.88;;;4.90;78.50;;;;;;4982655;28;20887;-91
2021/01/06 12:45:55;;;;;;;3.42;2.15;;;5.00;78.40;;;;;;4991392;28;20022;-92
2021/01/06 12:48:25;;;;;;;4.10;2.60;;;5.00;78.40;;;;;;4982266;28;20026;-92
2021/01/06 12:51:00;;;;;;;4.00;2.40;;;4.90;77.70;;;;;;4988636;28;20109;-95
2021/01/06 12:54:04;;;;;;;3.03;2.15;;;4.90;77.60;;;;;;4997005;28;20023;-96
2021/01/06 12:56:40;;;;;;;2.88;1.98;;;4.90;77.60;;;;;;4995494;28;20035;-96
2021/01/06 12:59:18;;;;;;;2.60;1.95;;;4.90;77.70;;;;;;4995749;28;20066;-96
2021/01/06 13:01:59;;;;;;;3.67;2.28;;;4.90;77.70;;;;;;4989854;28;20030;-96
2021/01/06 13:04:35;;;;;;;4.82;2.53;;;4.90;77.60;;;;;;4990344;28;20038;-91
2021/01/06 13:07:14;;;;;;;3.42;1.77;;;4.90;77.50;;;;;;4993688;28;20388;-94
2021/01/06 13:09:48;;;;;;;3.13;1.70;;;4.90;77.40;;;;;;4989560;28;20690;-91
2021/01/06 13:12:33;;;;;;;3.60;2.50;;;4.90;77.40;;;;;;4984042;28;20038;-91
2021/01/06 13:15:08;;;;;;;3.25;2.05;;;4.80;76.90;;;;;;4989678;28;20048;-95
2021/01/06 13:17:43;;;;;;;2.15;1.73;;;4.80;76.90;;;;;;4993558;28;20038;-92
2021/01/06 13:20:48;;;;;;;2.47;1.60;;;4.80;76.90;;;;;;4994555;28;20049;-92
2021/01/06 13:23:13;;;;;;;2.10;1.60;;;4.90;77.00;;;;;;4981034;28;20037;-89
2021/01/06 13:25:43;;;;;;;2.22;1.90;;;4.90;77.00;;;;;;4999890;28;20022;-94
2021/01/06 13:28:17;;;;;;;2.30;1.60;;;4.90;77.00;;;;;;4998096;28;20033;-92
2021/01/06 13:30:49;;;;;;;3.33;2.00;;;5.00;77.00;;;;;;4984558;28;20582;-90
2021/01/06 13:33:47;;;;;;;2.25;1.70;;;5.00;76.90;;;;;;4986089;28;20022;-90
2021/01/06 13:36:23;;;;;;;2.30;1.90;;;5.00;76.80;;;;;;4946107;28;20100;-89
2021/01/06 13:38:59;;;;;;;2.40;1.80;;;5.00;76.90;;;;;;4979886;28;20102;-87
2021/01/06 13:41:34;;;;;;;2.47;1.92;;;5.00;76.90;;;;;;4990281;28;20034;-95
2021/01/06 13:44:48;;;;;;;3.53;2.30;;;5.00;76.90;;;;;;4999279;28;20097;-96
2021/01/06 13:56:21;;;;;;;3.20;1.92;;;4.90;77.00;;;;;;5023490;28;20060;-95
2021/01/06 14:05:12;;;;;;;;;;;;;;;;;;;;;